sensor_id;sensor_type;location;lat;lon;timestamp;P1;durP1;ratioP1;P2;durP2;ratioP2
8411;SDS011;4243;49.296;11.348;2022-08-21T00:00:26;125.33;;;10.07;;
8411;SDS011;4243;49.296;11.348;2022-08-21T00:03:03;124.50;;;8.37;;
8411;SDS011;4243;49.296;11.348;2022-08-21T00:05:35;125.07;;;9.00;;
8411;SDS011;4243;49.296;11.348;2022-08-21T00:08:06;124.97;;;8.30;;
8411;SDS011;4243;49.296;11.348;2022-08-21T00:10:34;124.50;;;8.20;;
8411;SDS011;4243;49.296;11.348;2022-08-21T00:13:03;123.87;;;7.97;;
8411;SDS011;4243;49.296;11.348;2022-08-21T00:15:33;123.70;;;6.83;;
8411;SDS011;4243;49.296;11.348;2022-08-21T00:18:03;123.87;;;6.80;;
8411;SDS011;4243;49.296;11.348;2022-08-21T00:20:33;123.30;;;6.07;;
8411;SDS011;4243;49.296;11.348;2022-08-21T00:23:01;123.10;;;5.30;;
8411;SDS011;4243;49.296;11.348;2022-08-21T00:25:29;123.10;;;5.33;;
8411;SDS011;4243;49.296;11.348;2022-08-21T00:27:57;123.20;;;5.37;;
8411;SDS011;4243;49.296;11.348;2022-08-21T00:30:25;122.73;;;4.77;;
8411;SDS011;4243;49.296;11.348;2022-08-21T00:32:55;122.67;;;4.27;;
8411;SDS011;4243;49.296;11.348;2022-08-21T00:35:33;122.80;;;3.97;;
8411;SDS011;4243;49.296;11.348;2022-08-21T00:38:06;122.60;;;3.73;;
8411;SDS011;4243;49.296;11.348;2022-08-21T00:40:47;121.37;;;3.73;;
8411;SDS011;4243;49.296;11.348;2022-08-21T00:43:20;121.90;;;3.40;;
8411;SDS011;4243;49.296;11.348;2022-08-21T00:45:54;122.67;;;3.50;;
8411;SDS011;4243;49.296;11.348;2022-08-21T00:48:23;122.60;;;3.17;;
8411;SDS011;4243;49.296;11.348;2022-08-21T00:50:58;121.77;;;3.13;;
8411;SDS011;4243;49.296;11.348;2022-08-21T00:53:50;121.97;;;3.30;;
8411;SDS011;4243;49.296;11.348;2022-08-21T00:56:22;122.20;;;3.17;;
8411;SDS011;4243;49.296;11.348;2022-08-21T00:58:52;121.67;;;3.03;;
8411;SDS011;4243;49.296;11.348;2022-08-21T01:01:20;122.37;;;3.00;;
8411;SDS011;4243;49.296;11.348;2022-08-21T01:03:48;121.97;;;2.97;;
8411;SDS011;4243;49.296;11.348;2022-08-21T01:06:16;122.10;;;2.90;;
8411;SDS011;4243;49.296;11.348;2022-08-21T01:08:44;121.90;;;3.10;;
8411;SDS011;4243;49.296;11.348;2022-08-21T01:11:13;122.43;;;2.90;;
8411;SDS011;4243;49.296;11.348;2022-08-21T01:13:41;121.87;;;2.93;;
8411;SDS011;4243;49.296;11.348;2022-08-21T01:16:13;121.73;;;2.97;;
8411;SDS011;4243;49.296;11.348;2022-08-21T01:18:49;121.87;;;3.03;;
8411;SDS011;4243;49.296;11.348;2022-08-21T01:23:53;122.20;;;3.00;;
8411;SDS011;4243;49.296;11.348;2022-08-21T01:26:25;122.67;;;3.10;;
8411;SDS011;4243;49.296;11.348;2022-08-21T01:31:49;121.57;;;3.13;;
8411;SDS011;4243;49.296;11.348;2022-08-21T01:34:17;121.67;;;3.10;;
8411;SDS011;4243;49.296;11.348;2022-08-21T01:36:46;122.00;;;3.10;;
8411;SDS011;4243;49.296;11.348;2022-08-21T01:39:14;122.40;;;3.27;;
8411;SDS011;4243;49.296;11.348;2022-08-21T01:41:43;122.63;;;3.47;;
8411;SDS011;4243;49.296;11.348;2022-08-21T01:44:10;122.00;;;3.27;;
8411;SDS011;4243;49.296;11.348;2022-08-21T01:46:38;121.77;;;3.23;;
8411;SDS011;4243;49.296;11.348;2022-08-21T01:49:06;122.57;;;3.47;;
8411;SDS011;4243;49.296;11.348;2022-08-21T01:51:34;122.40;;;3.40;;
8411;SDS011;4243;49.296;11.348;2022-08-21T01:54:01;122.50;;;3.60;;
8411;SDS011;4243;49.296;11.348;2022-08-21T01:56:31;122.30;;;3.40;;
8411;SDS011;4243;49.296;11.348;2022-08-21T01:59:13;122.40;;;3.10;;
8411;SDS011;4243;49.296;11.348;2022-08-21T02:01:41;121.77;;;3.50;;
8411;SDS011;4243;49.296;11.348;2022-08-21T02:04:09;122.27;;;3.13;;
8411;SDS011;4243;49.296;11.348;2022-08-21T02:06:37;122.07;;;3.37;;
8411;SDS011;4243;49.296;11.348;2022-08-21T02:09:05;123.07;;;3.50;;
8411;SDS011;4243;49.296;11.348;2022-08-21T02:11:35;122.80;;;3.33;;
8411;SDS011;4243;49.296;11.348;2022-08-21T02:14:07;122.90;;;3.30;;
8411;SDS011;4243;49.296;11.348;2022-08-21T02:16:38;122.20;;;3.30;;
8411;SDS011;4243;49.296;11.348;2022-08-21T02:19:08;122.87;;;3.30;;
8411;SDS011;4243;49.296;11.348;2022-08-21T02:21:37;122.70;;;3.50;;
8411;SDS011;4243;49.296;11.348;2022-08-21T02:24:05;122.80;;;3.50;;
8411;SDS011;4243;49.296;11.348;2022-08-21T02:26:33;122.90;;;3.47;;
8411;SDS011;4243;49.296;11.348;2022-08-21T02:29:01;122.77;;;3.57;;
8411;SDS011;4243;49.296;11.348;2022-08-21T02:31:31;122.57;;;3.50;;
8411;SDS011;4243;49.296;11.348;2022-08-21T02:33:58;122.90;;;3.97;;
8411;SDS011;4243;49.296;11.348;2022-08-21T02:36:26;123.10;;;3.80;;
8411;SDS011;4243;49.296;11.348;2022-08-21T02:38:54;122.87;;;3.77;;
8411;SDS011;4243;49.296;11.348;2022-08-21T02:41:22;122.20;;;3.60;;
8411;SDS011;4243;49.296;11.348;2022-08-21T02:43:50;122.90;;;3.90;;
8411;SDS011;4243;49.296;11.348;2022-08-21T02:46:18;122.97;;;4.03;;
8411;SDS011;4243;49.296;11.348;2022-08-21T02:48:47;123.47;;;4.07;;
8411;SDS011;4243;49.296;11.348;2022-08-21T02:51:17;122.90;;;3.93;;
8411;SDS011;4243;49.296;11.348;2022-08-21T02:53:46;123.20;;;3.97;;
8411;SDS011;4243;49.296;11.348;2022-08-21T02:56:16;122.47;;;3.80;;
8411;SDS011;4243;49.296;11.348;2022-08-21T02:58:46;122.80;;;4.00;;
8411;SDS011;4243;49.296;11.348;2022-08-21T03:01:17;122.80;;;3.77;;
8411;SDS011;4243;49.296;11.348;2022-08-21T03:03:46;123.07;;;4.10;;
8411;SDS011;4243;49.296;11.348;2022-08-21T03:06:17;122.47;;;4.17;;
8411;SDS011;4243;49.296;11.348;2022-08-21T03:08:47;123.07;;;4.07;;
8411;SDS011;4243;49.296;11.348;2022-08-21T03:11:15;122.53;;;4.03;;
8411;SDS011;4243;49.296;11.348;2022-08-21T03:13:43;123.10;;;4.17;;
8411;SDS011;4243;49.296;11.348;2022-08-21T03:16:10;123.20;;;4.10;;
8411;SDS011;4243;49.296;11.348;2022-08-21T03:18:38;122.30;;;4.30;;
8411;SDS011;4243;49.296;11.348;2022-08-21T03:21:06;122.40;;;4.17;;
8411;SDS011;4243;49.296;11.348;2022-08-21T03:23:33;123.00;;;4.33;;
8411;SDS011;4243;49.296;11.348;2022-08-21T03:26:01;123.37;;;4.43;;
8411;SDS011;4243;49.296;11.348;2022-08-21T03:28:28;122.80;;;4.50;;
8411;SDS011;4243;49.296;11.348;2022-08-21T03:30:56;122.77;;;4.37;;
8411;SDS011;4243;49.296;11.348;2022-08-21T03:33:23;122.87;;;5.00;;
8411;SDS011;4243;49.296;11.348;2022-08-21T03:35:56;122.87;;;4.50;;
8411;SDS011;4243;49.296;11.348;2022-08-21T03:38:33;122.83;;;4.53;;
8411;SDS011;4243;49.296;11.348;2022-08-21T03:41:03;122.70;;;4.50;;
8411;SDS011;4243;49.296;11.348;2022-08-21T03:43:33;122.60;;;4.73;;
8411;SDS011;4243;49.296;11.348;2022-08-21T03:46:01;122.70;;;4.90;;
8411;SDS011;4243;49.296;11.348;2022-08-21T03:48:30;122.07;;;4.67;;
8411;SDS011;4243;49.296;11.348;2022-08-21T03:50:58;122.07;;;4.57;;
8411;SDS011;4243;49.296;11.348;2022-08-21T03:53:26;122.97;;;5.00;;
8411;SDS011;4243;49.296;11.348;2022-08-21T03:55:54;121.80;;;4.70;;
8411;SDS011;4243;49.296;11.348;2022-08-21T03:58:23;122.30;;;4.63;;
8411;SDS011;4243;49.296;11.348;2022-08-21T04:00:54;122.57;;;4.53;;
8411;SDS011;4243;49.296;11.348;2022-08-21T04:03:25;122.80;;;4.67;;
8411;SDS011;4243;49.296;11.348;2022-08-21T04:05:53;121.97;;;5.10;;
8411;SDS011;4243;49.296;11.348;2022-08-21T04:08:21;122.17;;;4.57;;
8411;SDS011;4243;49.296;11.348;2022-08-21T04:10:54;121.87;;;4.60;;
8411;SDS011;4243;49.296;11.348;2022-08-21T04:13:24;122.30;;;4.90;;
8411;SDS011;4243;49.296;11.348;2022-08-21T04:15:54;122.30;;;4.57;;
8411;SDS011;4243;49.296;11.348;2022-08-21T04:18:24;122.53;;;4.60;;
8411;SDS011;4243;49.296;11.348;2022-08-21T04:20:52;122.40;;;4.83;;
8411;SDS011;4243;49.296;11.348;2022-08-21T04:23:23;121.67;;;4.50;;
8411;SDS011;4243;49.296;11.348;2022-08-21T04:25:52;122.27;;;4.87;;
8411;SDS011;4243;49.296;11.348;2022-08-21T04:28:22;122.30;;;4.90;;
8411;SDS011;4243;49.296;11.348;2022-08-21T04:30:56;121.93;;;4.93;;
8411;SDS011;4243;49.296;11.348;2022-08-21T04:33:24;121.77;;;4.67;;
8411;SDS011;4243;49.296;11.348;2022-08-21T04:35:52;122.47;;;4.63;;
8411;SDS011;4243;49.296;11.348;2022-08-21T04:38:19;121.97;;;4.43;;
8411;SDS011;4243;49.296;11.348;2022-08-21T04:40:48;121.90;;;4.60;;
8411;SDS011;4243;49.296;11.348;2022-08-21T04:43:16;121.77;;;4.60;;
8411;SDS011;4243;49.296;11.348;2022-08-21T04:45:45;121.60;;;4.40;;
8411;SDS011;4243;49.296;11.348;2022-08-21T04:48:14;122.33;;;4.73;;
8411;SDS011;4243;49.296;11.348;2022-08-21T04:50:47;121.87;;;4.27;;
8411;SDS011;4243;49.296;11.348;2022-08-21T04:53:26;121.80;;;4.53;;
8411;SDS011;4243;49.296;11.348;2022-08-21T04:56:11;122.10;;;4.40;;
8411;SDS011;4243;49.296;11.348;2022-08-21T04:58:52;121.30;;;4.40;;
8411;SDS011;4243;49.296;11.348;2022-08-21T05:01:23;121.67;;;4.53;;
8411;SDS011;4243;49.296;11.348;2022-08-21T05:03:56;121.80;;;4.77;;
8411;SDS011;4243;49.296;11.348;2022-08-21T05:06:26;121.97;;;4.80;;
8411;SDS011;4243;49.296;11.348;2022-08-21T05:09:00;121.40;;;4.33;;
8411;SDS011;4243;49.296;11.348;2022-08-21T05:11:29;121.57;;;4.47;;
8411;SDS011;4243;49.296;11.348;2022-08-21T05:13:58;121.90;;;4.40;;
8411;SDS011;4243;49.296;11.348;2022-08-21T05:16:25;121.97;;;4.67;;
8411;SDS011;4243;49.296;11.348;2022-08-21T05:19:03;121.40;;;4.27;;
8411;SDS011;4243;49.296;11.348;2022-08-21T05:21:32;121.87;;;4.37;;
8411;SDS011;4243;49.296;11.348;2022-08-21T05:24:02;122.03;;;4.77;;
8411;SDS011;4243;49.296;11.348;2022-08-21T05:26:30;121.57;;;4.37;;
8411;SDS011;4243;49.296;11.348;2022-08-21T05:28:58;121.67;;;4.43;;
8411;SDS011;4243;49.296;11.348;2022-08-21T05:31:27;122.17;;;4.50;;
8411;SDS011;4243;49.296;11.348;2022-08-21T05:33:55;121.70;;;4.77;;
8411;SDS011;4243;49.296;11.348;2022-08-21T05:36:23;122.20;;;4.63;;
8411;SDS011;4243;49.296;11.348;2022-08-21T05:38:50;121.87;;;5.00;;
8411;SDS011;4243;49.296;11.348;2022-08-21T05:41:18;121.87;;;4.97;;
8411;SDS011;4243;49.296;11.348;2022-08-21T05:43:45;122.67;;;5.20;;
8411;SDS011;4243;49.296;11.348;2022-08-21T05:46:12;122.27;;;5.40;;
8411;SDS011;4243;49.296;11.348;2022-08-21T05:48:41;121.67;;;4.80;;
8411;SDS011;4243;49.296;11.348;2022-08-21T05:51:09;121.87;;;5.13;;
8411;SDS011;4243;49.296;11.348;2022-08-21T05:53:41;121.57;;;4.73;;
8411;SDS011;4243;49.296;11.348;2022-08-21T05:56:09;121.90;;;4.53;;
8411;SDS011;4243;49.296;11.348;2022-08-21T05:58:38;121.97;;;4.97;;
8411;SDS011;4243;49.296;11.348;2022-08-21T06:01:06;122.77;;;5.20;;
8411;SDS011;4243;49.296;11.348;2022-08-21T06:03:36;120.83;;;4.47;;
8411;SDS011;4243;49.296;11.348;2022-08-21T06:06:07;121.27;;;4.47;;
8411;SDS011;4243;49.296;11.348;2022-08-21T06:08:36;121.00;;;4.70;;
8411;SDS011;4243;49.296;11.348;2022-08-21T06:11:04;121.60;;;5.00;;
8411;SDS011;4243;49.296;11.348;2022-08-21T06:13:32;121.57;;;5.20;;
8411;SDS011;4243;49.296;11.348;2022-08-21T06:18:41;121.10;;;4.53;;
8411;SDS011;4243;49.296;11.348;2022-08-21T06:21:11;121.67;;;4.80;;
8411;SDS011;4243;49.296;11.348;2022-08-21T06:23:39;121.00;;;4.83;;
8411;SDS011;4243;49.296;11.348;2022-08-21T06:26:08;120.03;;;4.23;;
8411;SDS011;4243;49.296;11.348;2022-08-21T06:28:38;120.50;;;4.10;;
8411;SDS011;4243;49.296;11.348;2022-08-21T06:31:10;121.07;;;4.37;;
8411;SDS011;4243;49.296;11.348;2022-08-21T06:33:44;119.87;;;4.30;;
8411;SDS011;4243;49.296;11.348;2022-08-21T06:36:12;120.60;;;3.93;;
8411;SDS011;4243;49.296;11.348;2022-08-21T06:38:40;120.57;;;3.93;;
8411;SDS011;4243;49.296;11.348;2022-08-21T06:41:17;120.50;;;3.67;;
8411;SDS011;4243;49.296;11.348;2022-08-21T06:43:51;120.27;;;3.53;;
8411;SDS011;4243;49.296;11.348;2022-08-21T06:46:20;119.83;;;3.53;;
8411;SDS011;4243;49.296;11.348;2022-08-21T06:48:55;119.40;;;3.77;;
8411;SDS011;4243;49.296;11.348;2022-08-21T06:51:23;120.57;;;3.97;;
8411;SDS011;4243;49.296;11.348;2022-08-21T06:53:54;120.17;;;4.20;;
8411;SDS011;4243;49.296;11.348;2022-08-21T06:56:24;120.67;;;4.27;;
8411;SDS011;4243;49.296;11.348;2022-08-21T06:58:52;120.30;;;4.30;;
8411;SDS011;4243;49.296;11.348;2022-08-21T07:01:21;120.47;;;4.53;;
8411;SDS011;4243;49.296;11.348;2022-08-21T07:03:52;119.57;;;4.27;;
8411;SDS011;4243;49.296;11.348;2022-08-21T07:06:20;119.57;;;4.07;;
8411;SDS011;4243;49.296;11.348;2022-08-21T07:08:47;119.60;;;3.70;;
8411;SDS011;4243;49.296;11.348;2022-08-21T07:11:18;119.70;;;3.57;;
8411;SDS011;4243;49.296;11.348;2022-08-21T07:13:48;118.77;;;3.83;;
8411;SDS011;4243;49.296;11.348;2022-08-21T07:16:19;119.47;;;4.57;;
8411;SDS011;4243;49.296;11.348;2022-08-21T07:18:46;119.97;;;4.20;;
8411;SDS011;4243;49.296;11.348;2022-08-21T07:21:14;119.90;;;4.33;;
8411;SDS011;4243;49.296;11.348;2022-08-21T07:23:44;119.67;;;4.00;;
8411;SDS011;4243;49.296;11.348;2022-08-21T07:26:15;119.20;;;4.27;;
8411;SDS011;4243;49.296;11.348;2022-08-21T07:28:47;119.10;;;4.03;;
8411;SDS011;4243;49.296;11.348;2022-08-21T07:31:17;119.70;;;4.43;;
8411;SDS011;4243;49.296;11.348;2022-08-21T07:33:47;119.63;;;4.43;;
8411;SDS011;4243;49.296;11.348;2022-08-21T07:36:14;119.57;;;3.93;;
8411;SDS011;4243;49.296;11.348;2022-08-21T07:38:43;119.70;;;4.43;;
8411;SDS011;4243;49.296;11.348;2022-08-21T07:41:18;119.87;;;5.57;;
8411;SDS011;4243;49.296;11.348;2022-08-21T07:43:49;120.67;;;6.40;;
8411;SDS011;4243;49.296;11.348;2022-08-21T07:46:18;119.80;;;5.33;;
8411;SDS011;4243;49.296;11.348;2022-08-21T07:48:46;120.50;;;5.97;;
8411;SDS011;4243;49.296;11.348;2022-08-21T07:51:14;120.47;;;6.40;;
8411;SDS011;4243;49.296;11.348;2022-08-21T07:53:48;121.07;;;7.00;;
8411;SDS011;4243;49.296;11.348;2022-08-21T07:56:18;119.97;;;5.57;;
8411;SDS011;4243;49.296;11.348;2022-08-21T07:58:46;120.40;;;5.80;;
8411;SDS011;4243;49.296;11.348;2022-08-21T08:03:48;120.63;;;5.27;;
8411;SDS011;4243;49.296;11.348;2022-08-21T08:06:16;119.57;;;5.50;;
8411;SDS011;4243;49.296;11.348;2022-08-21T08:08:45;120.20;;;6.23;;
8411;SDS011;4243;49.296;11.348;2022-08-21T08:11:13;119.77;;;5.17;;
8411;SDS011;4243;49.296;11.348;2022-08-21T08:13:42;120.87;;;6.10;;
8411;SDS011;4243;49.296;11.348;2022-08-21T08:16:13;119.80;;;5.00;;
8411;SDS011;4243;49.296;11.348;2022-08-21T08:18:42;120.10;;;4.70;;
8411;SDS011;4243;49.296;11.348;2022-08-21T08:21:10;118.60;;;3.67;;
8411;SDS011;4243;49.296;11.348;2022-08-21T08:23:39;118.77;;;3.70;;
8411;SDS011;4243;49.296;11.348;2022-08-21T08:26:06;118.50;;;3.30;;
8411;SDS011;4243;49.296;11.348;2022-08-21T08:28:34;118.60;;;3.27;;
8411;SDS011;4243;49.296;11.348;2022-08-21T08:31:01;118.57;;;3.50;;
8411;SDS011;4243;49.296;11.348;2022-08-21T08:33:29;118.33;;;3.10;;
8411;SDS011;4243;49.296;11.348;2022-08-21T08:35:57;117.87;;;2.80;;
8411;SDS011;4243;49.296;11.348;2022-08-21T08:38:31;117.67;;;2.50;;
8411;SDS011;4243;49.296;11.348;2022-08-21T08:41:16;117.80;;;2.67;;
8411;SDS011;4243;49.296;11.348;2022-08-21T08:43:53;118.47;;;3.20;;
8411;SDS011;4243;49.296;11.348;2022-08-21T08:46:35;117.50;;;2.60;;
8411;SDS011;4243;49.296;11.348;2022-08-21T08:49:15;114.87;;;2.60;;
8411;SDS011;4243;49.296;11.348;2022-08-21T08:52:31;116.30;;;2.33;;
8411;SDS011;4243;49.296;11.348;2022-08-21T08:55:11;115.40;;;2.60;;
8411;SDS011;4243;49.296;11.348;2022-08-21T08:57:52;115.33;;;2.53;;
8411;SDS011;4243;49.296;11.348;2022-08-21T09:00:21;115.60;;;2.90;;
8411;SDS011;4243;49.296;11.348;2022-08-21T09:02:57;115.77;;;2.83;;
8411;SDS011;4243;49.296;11.348;2022-08-21T09:05:30;117.00;;;2.73;;
8411;SDS011;4243;49.296;11.348;2022-08-21T09:08:20;117.23;;;3.87;;
8411;SDS011;4243;49.296;11.348;2022-08-21T09:11:00;116.37;;;5.30;;
8411;SDS011;4243;49.296;11.348;2022-08-21T09:25:33;115.70;;;4.03;;
8411;SDS011;4243;49.296;11.348;2022-08-21T09:28:09;115.30;;;3.30;;
8411;SDS011;4243;49.296;11.348;2022-08-21T09:30:40;114.20;;;2.20;;
8411;SDS011;4243;49.296;11.348;2022-08-21T09:33:09;114.13;;;3.10;;
8411;SDS011;4243;49.296;11.348;2022-08-21T09:35:53;115.00;;;5.50;;
8411;SDS011;4243;49.296;11.348;2022-08-21T09:38:33;115.97;;;9.00;;
8411;SDS011;4243;49.296;11.348;2022-08-21T09:41:07;114.97;;;7.43;;
8411;SDS011;4243;49.296;11.348;2022-08-21T09:43:36;113.47;;;3.23;;
8411;SDS011;4243;49.296;11.348;2022-08-21T09:46:20;112.20;;;1.80;;
8411;SDS011;4243;49.296;11.348;2022-08-21T09:48:52;112.77;;;1.90;;
8411;SDS011;4243;49.296;11.348;2022-08-21T09:51:24;112.47;;;1.80;;
8411;SDS011;4243;49.296;11.348;2022-08-21T09:56:37;114.80;;;6.50;;
8411;SDS011;4243;49.296;11.348;2022-08-21T10:00:19;115.67;;;7.67;;
8411;SDS011;4243;49.296;11.348;2022-08-21T10:03:11;114.67;;;6.60;;
8411;SDS011;4243;49.296;11.348;2022-08-21T10:06:00;111.57;;;2.00;;
8411;SDS011;4243;49.296;11.348;2022-08-21T10:08:36;110.77;;;4.33;;
8411;SDS011;4243;49.296;11.348;2022-08-21T10:11:07;109.70;;;3.13;;
8411;SDS011;4243;49.296;11.348;2022-08-21T10:25:07;109.87;;;3.00;;
8411;SDS011;4243;49.296;11.348;2022-08-21T10:41:57;106.60;;;2.20;;
8411;SDS011;4243;49.296;11.348;2022-08-21T10:48:04;105.33;;;3.07;;
8411;SDS011;4243;49.296;11.348;2022-08-21T10:50:39;105.17;;;3.00;;
8411;SDS011;4243;49.296;11.348;2022-08-21T10:56:29;107.00;;;2.50;;
8411;SDS011;4243;49.296;11.348;2022-08-21T11:01:44;109.40;;;2.03;;
8411;SDS011;4243;49.296;11.348;2022-08-21T11:04:23;110.00;;;2.60;;
8411;SDS011;4243;49.296;11.348;2022-08-21T11:07:19;109.30;;;2.40;;
8411;SDS011;4243;49.296;11.348;2022-08-21T11:10:16;107.53;;;1.60;;
8411;SDS011;4243;49.296;11.348;2022-08-21T11:12:56;106.80;;;1.73;;
8411;SDS011;4243;49.296;11.348;2022-08-21T11:18:49;108.07;;;2.90;;
8411;SDS011;4243;49.296;11.348;2022-08-21T11:24:32;108.90;;;1.80;;
8411;SDS011;4243;49.296;11.348;2022-08-21T11:30:05;108.27;;;1.60;;
8411;SDS011;4243;49.296;11.348;2022-08-21T11:32:44;109.00;;;1.70;;
8411;SDS011;4243;49.296;11.348;2022-08-21T11:35:35;109.70;;;2.33;;
8411;SDS011;4243;49.296;11.348;2022-08-21T11:38:30;110.67;;;2.60;;
8411;SDS011;4243;49.296;11.348;2022-08-21T11:44:13;113.37;;;3.50;;
8411;SDS011;4243;49.296;11.348;2022-08-21T11:46:50;114.03;;;3.27;;
8411;SDS011;4243;49.296;11.348;2022-08-21T11:52:40;112.43;;;2.60;;
8411;SDS011;4243;49.296;11.348;2022-08-21T11:58:00;111.87;;;2.60;;
8411;SDS011;4243;49.296;11.348;2022-08-21T12:00:37;112.00;;;2.70;;
8411;SDS011;4243;49.296;11.348;2022-08-21T12:03:15;113.67;;;3.00;;
8411;SDS011;4243;49.296;11.348;2022-08-21T12:06:01;113.87;;;2.03;;
8411;SDS011;4243;49.296;11.348;2022-08-21T12:08:32;113.70;;;1.67;;
8411;SDS011;4243;49.296;11.348;2022-08-21T12:16:48;111.50;;;2.40;;
8411;SDS011;4243;49.296;11.348;2022-08-21T12:21:51;108.73;;;1.97;;
8411;SDS011;4243;49.296;11.348;2022-08-21T12:24:40;108.17;;;1.80;;
8411;SDS011;4243;49.296;11.348;2022-08-21T12:27:14;108.10;;;1.80;;
8411;SDS011;4243;49.296;11.348;2022-08-21T12:32:54;108.90;;;2.27;;
8411;SDS011;4243;49.296;11.348;2022-08-21T12:35:33;109.60;;;2.47;;
8411;SDS011;4243;49.296;11.348;2022-08-21T12:38:14;109.07;;;2.00;;
8411;SDS011;4243;49.296;11.348;2022-08-21T12:41:07;108.37;;;1.60;;
8411;SDS011;4243;49.296;11.348;2022-08-21T12:43:47;107.27;;;1.60;;
8411;SDS011;4243;49.296;11.348;2022-08-21T12:46:37;107.27;;;1.83;;
8411;SDS011;4243;49.296;11.348;2022-08-21T12:49:33;106.20;;;2.23;;
8411;SDS011;4243;49.296;11.348;2022-08-21T12:52:08;106.47;;;2.33;;
8411;SDS011;4243;49.296;11.348;2022-08-21T12:55:02;107.87;;;2.10;;
8411;SDS011;4243;49.296;11.348;2022-08-21T12:57:30;108.37;;;2.10;;
8411;SDS011;4243;49.296;11.348;2022-08-21T12:59:59;107.87;;;2.00;;
8411;SDS011;4243;49.296;11.348;2022-08-21T13:02:35;107.07;;;1.87;;
8411;SDS011;4243;49.296;11.348;2022-08-21T13:05:11;108.57;;;5.47;;
8411;SDS011;4243;49.296;11.348;2022-08-21T13:07:48;108.30;;;6.10;;
8411;SDS011;4243;49.296;11.348;2022-08-21T13:10:20;106.10;;;2.30;;
8411;SDS011;4243;49.296;11.348;2022-08-21T13:12:54;105.37;;;2.00;;
8411;SDS011;4243;49.296;11.348;2022-08-21T13:15:27;107.80;;;4.30;;
8411;SDS011;4243;49.296;11.348;2022-08-21T13:18:01;112.30;;;11.43;;
8411;SDS011;4243;49.296;11.348;2022-08-21T13:20:39;113.40;;;11.67;;
8411;SDS011;4243;49.296;11.348;2022-08-21T13:23:23;114.17;;;13.07;;
8411;SDS011;4243;49.296;11.348;2022-08-21T13:25:55;112.97;;;12.60;;
8411;SDS011;4243;49.296;11.348;2022-08-21T13:28:23;112.87;;;12.70;;
8411;SDS011;4243;49.296;11.348;2022-08-21T13:31:05;110.10;;;8.93;;
8411;SDS011;4243;49.296;11.348;2022-08-21T13:33:39;106.60;;;2.80;;
8411;SDS011;4243;49.296;11.348;2022-08-21T13:36:09;105.43;;;1.40;;
8411;SDS011;4243;49.296;11.348;2022-08-21T13:39:08;105.17;;;1.30;;
8411;SDS011;4243;49.296;11.348;2022-08-21T13:41:40;104.27;;;1.47;;
8411;SDS011;4243;49.296;11.348;2022-08-21T13:46:52;104.90;;;1.93;;
8411;SDS011;4243;49.296;11.348;2022-08-21T13:49:23;105.17;;;2.03;;
8411;SDS011;4243;49.296;11.348;2022-08-21T13:51:59;105.57;;;1.77;;
8411;SDS011;4243;49.296;11.348;2022-08-21T13:54:38;105.97;;;1.20;;
8411;SDS011;4243;49.296;11.348;2022-08-21T13:57:25;107.40;;;1.50;;
8411;SDS011;4243;49.296;11.348;2022-08-21T14:00:17;108.97;;;2.10;;
8411;SDS011;4243;49.296;11.348;2022-08-21T14:03:00;111.70;;;6.30;;
8411;SDS011;4243;49.296;11.348;2022-08-21T14:05:36;112.20;;;7.50;;
8411;SDS011;4243;49.296;11.348;2022-08-21T14:08:11;111.57;;;6.77;;
8411;SDS011;4243;49.296;11.348;2022-08-21T14:10:56;111.17;;;7.50;;
8411;SDS011;4243;49.296;11.348;2022-08-21T14:13:30;110.23;;;6.40;;
8411;SDS011;4243;49.296;11.348;2022-08-21T14:16:10;107.87;;;2.60;;
8411;SDS011;4243;49.296;11.348;2022-08-21T14:18:46;105.87;;;1.80;;
8411;SDS011;4243;49.296;11.348;2022-08-21T14:21:31;106.13;;;1.40;;
8411;SDS011;4243;49.296;11.348;2022-08-21T14:24:09;105.67;;;1.20;;
8411;SDS011;4243;49.296;11.348;2022-08-21T14:27:02;105.63;;;1.20;;
8411;SDS011;4243;49.296;11.348;2022-08-21T14:29:34;106.07;;;1.20;;
8411;SDS011;4243;49.296;11.348;2022-08-21T14:32:13;106.03;;;1.30;;
8411;SDS011;4243;49.296;11.348;2022-08-21T14:34:50;107.00;;;1.40;;
8411;SDS011;4243;49.296;11.348;2022-08-21T14:37:20;107.20;;;1.70;;
8411;SDS011;4243;49.296;11.348;2022-08-21T14:39:49;107.93;;;2.13;;
8411;SDS011;4243;49.296;11.348;2022-08-21T14:42:16;107.97;;;1.80;;
8411;SDS011;4243;49.296;11.348;2022-08-21T14:44:44;107.87;;;1.90;;
8411;SDS011;4243;49.296;11.348;2022-08-21T14:47:12;108.37;;;1.80;;
8411;SDS011;4243;49.296;11.348;2022-08-21T14:49:39;107.67;;;1.93;;
8411;SDS011;4243;49.296;11.348;2022-08-21T14:52:07;108.30;;;2.07;;
8411;SDS011;4243;49.296;11.348;2022-08-21T14:54:35;107.87;;;2.00;;
8411;SDS011;4243;49.296;11.348;2022-08-21T14:57:06;107.93;;;1.97;;
8411;SDS011;4243;49.296;11.348;2022-08-21T14:59:38;109.20;;;2.63;;
8411;SDS011;4243;49.296;11.348;2022-08-21T15:02:06;112.00;;;6.53;;
8411;SDS011;4243;49.296;11.348;2022-08-21T15:04:34;112.40;;;7.60;;
8411;SDS011;4243;49.296;11.348;2022-08-21T15:07:02;112.77;;;6.70;;
8411;SDS011;4243;49.296;11.348;2022-08-21T15:09:30;114.50;;;8.53;;
8411;SDS011;4243;49.296;11.348;2022-08-21T15:11:58;113.77;;;7.37;;
8411;SDS011;4243;49.296;11.348;2022-08-21T15:14:29;113.90;;;5.80;;
8411;SDS011;4243;49.296;11.348;2022-08-21T15:17:01;113.57;;;6.10;;
8411;SDS011;4243;49.296;11.348;2022-08-21T15:19:30;113.47;;;6.90;;
8411;SDS011;4243;49.296;11.348;2022-08-21T15:21:57;113.73;;;7.10;;
8411;SDS011;4243;49.296;11.348;2022-08-21T15:24:26;113.70;;;7.97;;
8411;SDS011;4243;49.296;11.348;2022-08-21T15:26:54;114.40;;;8.10;;
8411;SDS011;4243;49.296;11.348;2022-08-21T15:29:22;114.73;;;10.47;;
8411;SDS011;4243;49.296;11.348;2022-08-21T15:31:59;114.90;;;11.63;;
8411;SDS011;4243;49.296;11.348;2022-08-21T15:34:30;114.20;;;10.87;;
8411;SDS011;4243;49.296;11.348;2022-08-21T15:36:57;113.00;;;9.70;;
8411;SDS011;4243;49.296;11.348;2022-08-21T15:39:25;112.67;;;8.57;;
8411;SDS011;4243;49.296;11.348;2022-08-21T15:41:55;112.20;;;8.03;;
8411;SDS011;4243;49.296;11.348;2022-08-21T15:44:23;111.97;;;7.10;;
8411;SDS011;4243;49.296;11.348;2022-08-21T15:46:54;112.47;;;8.03;;
8411;SDS011;4243;49.296;11.348;2022-08-21T15:49:22;112.77;;;8.47;;
8411;SDS011;4243;49.296;11.348;2022-08-21T15:51:50;118.70;;;7.87;;
8411;SDS011;4243;49.296;11.348;2022-08-21T15:54:18;114.33;;;8.37;;
8411;SDS011;4243;49.296;11.348;2022-08-21T15:56:46;113.17;;;7.10;;
8411;SDS011;4243;49.296;11.348;2022-08-21T15:59:17;113.87;;;7.27;;
8411;SDS011;4243;49.296;11.348;2022-08-21T16:01:49;114.27;;;7.50;;
8411;SDS011;4243;49.296;11.348;2022-08-21T16:04:22;114.03;;;7.73;;
8411;SDS011;4243;49.296;11.348;2022-08-21T16:06:53;113.23;;;5.93;;
8411;SDS011;4243;49.296;11.348;2022-08-21T16:09:30;113.67;;;4.97;;
8411;SDS011;4243;49.296;11.348;2022-08-21T16:11:59;113.70;;;3.50;;
8411;SDS011;4243;49.296;11.348;2022-08-21T16:14:30;113.80;;;3.27;;
8411;SDS011;4243;49.296;11.348;2022-08-21T16:17:06;114.17;;;2.03;;
8411;SDS011;4243;49.296;11.348;2022-08-21T16:19:34;114.50;;;1.90;;
8411;SDS011;4243;49.296;11.348;2022-08-21T16:22:02;115.10;;;2.70;;
8411;SDS011;4243;49.296;11.348;2022-08-21T16:24:30;117.07;;;4.50;;
8411;SDS011;4243;49.296;11.348;2022-08-21T16:26:59;116.97;;;4.10;;
8411;SDS011;4243;49.296;11.348;2022-08-21T16:29:33;116.80;;;3.27;;
8411;SDS011;4243;49.296;11.348;2022-08-21T16:32:05;117.17;;;2.93;;
8411;SDS011;4243;49.296;11.348;2022-08-21T16:34:34;117.10;;;3.00;;
8411;SDS011;4243;49.296;11.348;2022-08-21T16:37:02;117.50;;;3.63;;